Beatrice, NE

9:21 PM CST on December 14, 2019 (GMT -0600)
Beatrice Municipal

Weather History for KBIE - October, 2019

Change the Weather History Date:

Friday, October 18, 2019

  Actual Average Record
Temperature  
Mean Temperature 66 °F -  
Max Temperature 78 °F 64 °F 86 °F (2005)
Min Temperature 53 °F 40 °F 30 °F (1970)
Growing Degree Days 16 (Base 50)    
Moisture  
Dew Point 48 °F    
Average Humidity 56    
Maximum Humidity 75    
Minimum Humidity 38    
Precipitation  
Precipitation 0.00 in - - ()
Sea Level Pressure  
Sea Level Pressure 29.62 in    
Wind  
Wind Speed 14 mph (South)    
Max Wind Speed 28 mph    
Max Gust Speed 39 mph    
Visibility 10 miles    
Events Rain    
Averages and records for this station are not official NWS values.
T = Trace of Precipitation, MM = Missing Value Source: NWS Daily Summary

Daily Weather History Graph

Daily Weather History Graph

Search for Another Location

Airport or City:

Astronomy

Oct. 18, 2019 Rise Set
Actual Time 7:40 AM CDT 6:42 PM CDT
Civil Twilight 7:13 AM CDT 7:10 PM CDT
Nautical Twilight 6:41 AM CDT 7:41 PM CDT
Astronomical Twilight 6:10 AM CDT 8:13 PM CDT
Moon 10:00 PM CDT (10/18) 12:15 PM CDT (10/18)
Length of Visible Light 11h 57m
Length of Day
11h 02m
Waning Gibbous, 78% of the Moon is Illuminated
Oct 18
Waning Gibbous
Oct 21
Last Quarter
Oct 27
New
Nov 4
First Quarter
Nov 12
Full

Hourly Weather History & Observations

Time (CDT) Temp. Dew Point Humidity Pressure Visibility Wind Dir Wind Speed Gust Speed Precip Events Conditions
12:15 AM 58.5 °F 46.8 °F 65% 29.75 in 10.0 mi SSE 13.8 mph 17.3 mph N/A   Clear
12:35 AM 58.1 °F 46.6 °F 65% 29.74 in 10.0 mi SSE 11.5 mph 19.6 mph N/A   Clear
12:55 AM 57.2 °F 46.6 °F 68% 29.74 in 10.0 mi SSE 10.4 mph 16.1 mph N/A   Clear
1:15 AM 56.3 °F 46.4 °F 69% 29.73 in 10.0 mi SSE 12.7 mph 16.1 mph N/A   Clear
1:35 AM 56.1 °F 46.4 °F 70% 29.73 in 10.0 mi SSE 10.4 mph - N/A   Clear
1:55 AM 55.6 °F 46.4 °F 71% 29.73 in 10.0 mi SSE 10.4 mph 16.1 mph N/A   Clear
2:15 AM 55.4 °F 46.4 °F 72% 29.73 in 10.0 mi SSE 11.5 mph - N/A   Clear
2:35 AM 55.0 °F 46.4 °F 73% 29.73 in 10.0 mi SSE 12.7 mph - N/A   Clear
2:55 AM 55.0 °F 46.2 °F 72% 29.72 in 10.0 mi SSE 10.4 mph - N/A   Clear
3:15 AM 54.7 °F 46.0 °F 73% 29.72 in 10.0 mi SSE 9.2 mph - N/A   Clear
3:35 AM 53.8 °F 46.0 °F 75% 29.72 in 10.0 mi SSE 10.4 mph - N/A   Clear
3:55 AM 53.8 °F 46.0 °F 75% 29.71 in 10.0 mi SSE 8.1 mph - N/A   Clear
4:15 AM 54.3 °F 46.0 °F 74% 29.70 in 10.0 mi SSE 11.5 mph 16.1 mph N/A   Clear
4:35 AM 54.3 °F 45.9 °F 73% 29.69 in 10.0 mi SSE 11.5 mph 17.3 mph N/A   Clear
5:15 AM 54.3 °F 45.5 °F 72% 29.69 in 10.0 mi South 11.5 mph - N/A   Clear
5:35 AM 54.0 °F 45.5 °F 73% 29.68 in 10.0 mi SSE 10.4 mph 17.3 mph N/A   Clear
5:55 AM 53.6 °F 45.1 °F 73% 29.67 in 10.0 mi SSE 10.4 mph 17.3 mph N/A   Clear
6:15 AM 53.8 °F 45.0 °F 72% 29.66 in 10.0 mi SSE 11.5 mph - N/A   Clear
6:35 AM 53.8 °F 44.8 °F 72% 29.65 in 10.0 mi SSE 13.8 mph 18.4 mph N/A   Clear
6:55 AM 53.6 °F 44.8 °F 72% 29.65 in 10.0 mi SSE 12.7 mph - N/A   Clear
7:15 AM 53.1 °F 44.6 °F 73% 29.65 in 10.0 mi SSE 13.8 mph - N/A   Clear
7:35 AM 53.6 °F 44.2 °F 71% 29.64 in 10.0 mi SSE 11.5 mph 17.3 mph N/A   Clear
7:55 AM 54.3 °F 43.9 °F 68% 29.63 in 10.0 mi SSE 17.3 mph 24.2 mph N/A   Clear
8:15 AM 54.9 °F 43.7 °F 66% 29.63 in 10.0 mi SSE 16.1 mph 25.3 mph N/A   Clear
8:35 AM 54.5 °F 43.5 °F 66% 29.63 in 10.0 mi SSE 16.1 mph 25.3 mph N/A   Clear
8:55 AM 55.6 °F 43.5 °F 64% 29.63 in 10.0 mi SSE 16.1 mph 24.2 mph N/A   Clear
9:15 AM 57.6 °F 43.9 °F 60% 29.63 in 10.0 mi SSE 17.3 mph - N/A   Clear
9:30 AM 59.0 °F 43.9 °F 57% 29.63 in 10.0 mi South 17.3 mph 25.3 mph N/A   Clear
9:55 AM 61.7 °F 43.9 °F 52% 29.61 in 10.0 mi South 20.7 mph 28.8 mph N/A   Clear
10:15 AM 63.9 °F 44.2 °F 49% 29.61 in 10.0 mi South 17.3 mph 28.8 mph N/A   Clear
10:35 AM 65.3 °F 45.0 °F 48% 29.61 in 10.0 mi South 21.9 mph 28.8 mph N/A   Clear
10:55 AM 66.9 °F 45.7 °F 46% 29.60 in 10.0 mi South 21.9 mph 27.6 mph N/A   Clear
11:15 AM 67.8 °F 46.4 °F 46% 29.58 in 10.0 mi South 23.0 mph 33.4 mph N/A   Clear
11:35 AM 69.1 °F 47.5 °F 46% 29.58 in 10.0 mi South 24.2 mph 36.8 mph N/A   Clear
11:55 AM 70.3 °F 48.2 °F 45% 29.57 in 10.0 mi South 25.3 mph 34.5 mph N/A   Clear
12:15 PM 72.3 °F 49.5 °F 44% 29.56 in 10.0 mi South 23.0 mph 34.5 mph N/A   Clear
12:35 PM 72.5 °F 49.3 °F 44% 29.56 in 10.0 mi South 21.9 mph 35.7 mph N/A   Clear
12:55 PM 73.9 °F 50.7 °F 44% 29.55 in 10.0 mi South 23.0 mph 34.5 mph N/A   Clear
1:15 PM 74.7 °F 50.9 °F 43% 29.54 in 10.0 mi South 27.6 mph 36.8 mph N/A   Clear
1:35 PM 75.7 °F 51.4 °F 43% 29.53 in 10.0 mi South 26.5 mph 35.7 mph N/A   Clear
1:55 PM 76.6 °F 51.8 °F 42% 29.53 in 10.0 mi South 27.6 mph 36.8 mph N/A   Clear
2:15 PM 77.0 °F 50.2 °F 39% 29.53 in 10.0 mi South 26.5 mph 38.0 mph N/A   Clear
2:35 PM 77.4 °F 50.2 °F 38% 29.51 in 10.0 mi South 27.6 mph 39.1 mph N/A   Clear
2:55 PM 77.5 °F 50.2 °F 38% 29.51 in 10.0 mi South 27.6 mph 36.8 mph N/A   Clear
3:15 PM 78.1 °F 50.5 °F 38% 29.51 in 10.0 mi South 23.0 mph 39.1 mph N/A   Clear
3:35 PM 78.1 °F 50.5 °F 38% 29.51 in 10.0 mi South 24.2 mph 32.2 mph N/A   Clear
3:55 PM 78.3 °F 50.5 °F 38% 29.52 in 10.0 mi South 25.3 mph 34.5 mph N/A   Clear
4:15 PM 78.1 °F 50.5 °F 38% 29.52 in 10.0 mi South 25.3 mph 32.2 mph N/A   Clear
4:35 PM 77.9 °F 50.7 °F 39% 29.53 in 10.0 mi South 19.6 mph 27.6 mph N/A   Clear
4:55 PM 77.5 °F 50.9 °F 39% 29.53 in 10.0 mi South 21.9 mph 32.2 mph N/A   Clear
5:15 PM 77.0 °F 51.1 °F 40% 29.53 in 10.0 mi South 19.6 mph 28.8 mph N/A   Clear
5:35 PM 75.6 °F 51.8 °F 43% 29.54 in 10.0 mi South 16.1 mph 23.0 mph N/A   Clear
5:55 PM 74.7 °F 52.2 °F 45% 29.55 in 10.0 mi South 11.5 mph - N/A   Clear
6:15 PM 73.6 °F 51.8 °F 46% 29.56 in 10.0 mi South 12.7 mph - N/A   Clear
6:35 PM 72.3 °F 52.0 °F 49% 29.57 in 10.0 mi South 9.2 mph - N/A   Clear
6:55 PM 70.9 °F 51.6 °F 50% 29.58 in 10.0 mi SSE 15.0 mph - N/A   Clear
7:15 PM 69.6 °F 51.3 °F 52% 29.59 in 10.0 mi SSE 10.4 mph - N/A   Clear
7:35 PM 68.5 °F 50.7 °F 53% 29.61 in 10.0 mi SSE 9.2 mph - N/A   Clear
7:55 PM 67.3 °F 50.2 °F 54% 29.60 in 10.0 mi SSE 13.8 mph 18.4 mph N/A   Clear
8:15 PM 67.3 °F 49.3 °F 52% 29.61 in 10.0 mi SSE 12.7 mph 19.6 mph N/A   Clear
8:35 PM 66.4 °F 48.6 °F 53% 29.61 in 10.0 mi SSE 13.8 mph 18.4 mph N/A   Clear
8:55 PM 65.5 °F 48.2 °F 54% 29.62 in 10.0 mi SSE 10.4 mph 17.3 mph N/A   Clear
9:15 PM 64.4 °F 47.7 °F 55% 29.63 in 10.0 mi SSE 11.5 mph - N/A   Clear
9:35 PM 63.0 °F 47.3 °F 57% 29.64 in 10.0 mi SSE 9.2 mph - N/A   Clear
9:55 PM 63.1 °F 46.9 °F 55% 29.65 in 10.0 mi South 10.4 mph 17.3 mph N/A   Scattered Clouds
10:15 PM 62.8 °F 46.8 °F 56% 29.67 in 10.0 mi South 8.1 mph - N/A   Overcast
10:35 PM 61.0 °F 47.1 °F 60% 29.68 in 10.0 mi West 4.6 mph - N/A   Mostly Cloudy
10:55 PM 61.0 °F 46.8 °F 59% 29.69 in 10.0 mi Calm Calm - N/A   Scattered Clouds
11:15 PM 61.7 °F 47.1 °F 59% 29.70 in 10.0 mi WSW 5.8 mph - N/A   Mostly Cloudy
11:35 PM 62.4 °F 47.1 °F 57% 29.70 in 10.0 mi West 4.6 mph - N/A   Overcast
11:55 PM 61.0 °F 48.2 °F 63% 29.71 in 10.0 mi WSW 8.1 mph - N/A Rain Light Rain